createdAt,value
2022-09-21T00:01:09.616Z,92.36
2022-09-21T00:03:12.959Z,91.28
2022-09-21T00:05:17.096Z,90.28
2022-09-21T00:07:20.108Z,90.25
2022-09-21T00:09:23.129Z,91.17
2022-09-21T00:11:29.477Z,91.31
2022-09-21T00:13:33.114Z,90.10
2022-09-21T00:15:36.186Z,89.51
2022-09-21T00:17:39.239Z,90.08
2022-09-21T00:19:42.479Z,91.65
2022-09-21T00:21:45.413Z,91.49
2022-09-21T00:23:48.647Z,92.13
2022-09-21T00:25:51.783Z,92.29
2022-09-21T00:27:56.635Z,92.54
2022-09-21T00:30:00.804Z,91.80
2022-09-21T00:32:03.798Z,92.22
2022-09-21T00:34:08.014Z,91.57
2022-09-21T00:36:12.900Z,90.93
2022-09-21T00:38:15.826Z,90.58
2022-09-21T00:40:18.929Z,89.26
2022-09-21T00:42:23.666Z,89.19
2022-09-21T00:44:34.623Z,89.32
2022-09-21T00:46:39.034Z,89.33
2022-09-21T00:48:42.842Z,88.88
2022-09-21T00:50:50.511Z,89.69
2022-09-21T00:52:55.335Z,89.70
2022-09-21T00:55:04.903Z,90.46
2022-09-21T00:57:08.574Z,90.86
2022-09-21T00:59:13.494Z,91.13
2022-09-21T01:01:18.695Z,92.20
2022-09-21T01:03:21.790Z,91.12
2022-09-21T01:05:25.056Z,91.00
2022-09-21T01:07:29.277Z,91.50
2022-09-21T01:09:32.777Z,91.84
2022-09-21T01:11:42.247Z,91.65
2022-09-21T01:13:55.774Z,91.14
2022-09-21T01:16:03.244Z,89.81
2022-09-21T01:18:14.138Z,89.61
2022-09-21T01:20:49.866Z,89.96
2022-09-21T01:23:04.008Z,91.24
2022-09-21T01:25:13.639Z,90.77
2022-09-21T01:27:47.444Z,90.84
2022-09-21T01:29:53.146Z,92.51
2022-09-21T01:32:00.116Z,91.82
2022-09-21T01:34:07.724Z,92.49
2022-09-21T01:36:14.121Z,93.20
2022-09-21T01:38:20.591Z,92.44
2022-09-21T01:40:35.403Z,92.02
2022-09-21T01:42:40.422Z,91.57
2022-09-21T01:44:44.726Z,92.03
2022-09-21T01:46:49.933Z,90.62
2022-09-21T01:48:55.038Z,91.26
2022-09-21T01:50:59.125Z,92.15
2022-09-21T01:53:05.978Z,91.70
2022-09-21T01:55:12.175Z,90.45
2022-09-21T01:57:20.337Z,90.17
2022-09-21T01:59:27.857Z,90.17
2022-09-21T02:01:33.444Z,90.37
2022-09-21T02:03:39.491Z,90.42
2022-09-21T02:05:43.009Z,90.07
2022-09-21T02:07:46.334Z,90.82
2022-09-21T02:09:49.404Z,90.13
2022-09-21T02:11:52.312Z,91.07
2022-09-21T02:13:56.301Z,90.27
2022-09-21T02:16:07.037Z,91.17
2022-09-21T02:18:16.350Z,91.02
2022-09-21T02:20:22.090Z,92.41
2022-09-21T02:22:32.149Z,90.87
2022-09-21T02:24:41.213Z,90.63
2022-09-21T02:26:48.184Z,91.40
2022-09-21T02:28:54.134Z,92.23
2022-09-21T02:31:00.883Z,91.88
2022-09-21T02:33:11.417Z,92.22
2022-09-21T02:35:17.399Z,91.25
2022-09-21T02:37:24.617Z,91.97
2022-09-21T02:39:33.442Z,91.18
2022-09-21T02:41:41.348Z,90.72
2022-09-21T02:43:47.127Z,90.32
2022-09-21T02:45:54.009Z,90.55
2022-09-21T02:48:00.787Z,90.57
2022-09-21T02:50:06.879Z,90.79
2022-09-21T02:52:12.569Z,91.73
2022-09-21T02:54:18.775Z,92.03
2022-09-21T02:56:22.535Z,91.59
2022-09-21T02:58:27.130Z,90.63
2022-09-21T03:00:30.454Z,90.96
2022-09-21T03:02:38.038Z,90.10
2022-09-21T03:04:41.617Z,90.53
2022-09-21T03:06:44.648Z,90.64
2022-09-21T03:08:47.635Z,90.82
2022-09-21T03:10:52.164Z,90.35
2022-09-21T03:12:59.338Z,91.72
2022-09-21T03:15:02.282Z,91.02
2022-09-21T03:17:05.559Z,90.87
2022-09-21T03:19:08.960Z,92.02
2022-09-21T03:21:12.185Z,91.52
2022-09-21T03:23:15.550Z,90.37
2022-09-21T03:25:18.487Z,90.92
2022-09-21T03:27:22.947Z,90.73
2022-09-21T03:29:25.912Z,91.92
2022-09-21T03:31:28.905Z,91.58
2022-09-21T03:33:31.970Z,91.35
2022-09-21T03:35:35.570Z,91.49
2022-09-21T03:37:41.331Z,92.76
2022-09-21T03:39:47.237Z,91.27
2022-09-21T03:41:50.709Z,90.78
2022-09-21T03:43:55.049Z,91.68
2022-09-21T03:46:00.914Z,91.11
2022-09-21T03:48:04.295Z,91.93
2022-09-21T03:50:10.173Z,92.60
2022-09-21T03:52:13.351Z,91.71
2022-09-21T03:54:16.409Z,90.63
2022-09-21T03:56:19.494Z,91.77
2022-09-21T03:58:22.437Z,90.72
2022-09-21T04:00:26.855Z,90.47
2022-09-21T04:02:29.932Z,91.48
2022-09-21T04:04:32.895Z,91.50
2022-09-21T04:06:36.154Z,91.45
2022-09-21T04:08:39.191Z,91.81
2022-09-21T04:10:43.258Z,91.25
2022-09-21T04:12:46.896Z,91.71
2022-09-21T04:14:50.329Z,92.05
2022-09-21T04:16:54.679Z,91.77
2022-09-21T04:18:57.662Z,93.03
2022-09-21T04:21:00.630Z,92.97
2022-09-21T04:23:03.550Z,91.93
2022-09-21T04:25:07.461Z,93.22
2022-09-21T04:27:11.297Z,92.45
2022-09-21T04:29:14.601Z,92.61
2022-09-21T04:31:17.746Z,93.53
2022-09-21T04:33:22.374Z,93.36
2022-09-21T04:35:25.286Z,93.21
2022-09-21T04:37:28.289Z,93.59
2022-09-21T04:39:31.195Z,92.57
2022-09-21T04:41:34.253Z,93.10
2022-09-21T04:43:37.368Z,93.47
2022-09-21T04:45:40.582Z,94.16
2022-09-21T04:47:43.465Z,93.00
2022-09-21T04:49:47.840Z,93.13
2022-09-21T04:51:51.388Z,93.67
2022-09-21T04:53:54.378Z,93.48
2022-09-21T04:55:57.448Z,92.94
2022-09-21T04:58:00.802Z,93.82
2022-09-21T05:00:04.588Z,93.56
2022-09-21T05:02:07.583Z,93.72
2022-09-21T05:04:10.495Z,93.40
2022-09-21T05:06:15.045Z,93.73
2022-09-21T05:08:38.613Z,94.01
2022-09-21T05:10:40.695Z,93.66
2022-09-21T05:12:43.829Z,93.65
2022-09-21T05:14:46.818Z,93.31
2022-09-21T05:16:50.413Z,92.89
2022-09-21T05:18:54.916Z,93.40
2022-09-21T05:20:58.383Z,94.19
2022-09-21T05:23:03.298Z,93.95
2022-09-21T05:25:07.636Z,93.61
2022-09-21T05:27:10.555Z,94.27
2022-09-21T05:29:14.098Z,94.69
2022-09-21T05:31:39.379Z,93.60
2022-09-21T05:33:45.893Z,94.98
2022-09-21T05:35:59.721Z,94.39
2022-09-21T05:38:09.049Z,94.44
2022-09-21T05:40:13.537Z,94.75
2022-09-21T05:42:17.035Z,94.37
2022-09-21T05:44:21.568Z,94.80
2022-09-21T05:46:34.852Z,94.49
2022-09-21T05:48:40.462Z,95.70
2022-09-21T05:50:51.082Z,95.17
2022-09-21T05:53:05.278Z,95.44
2022-09-21T05:55:13.634Z,94.31
2022-09-21T05:57:20.804Z,95.21
2022-09-21T05:59:40.551Z,94.48
2022-09-21T06:01:55.506Z,94.21
2022-09-21T06:03:59.674Z,94.23
2022-09-21T06:06:02.983Z,94.44
2022-09-21T06:08:07.354Z,95.68
2022-09-21T06:10:11.803Z,95.04
2022-09-21T06:12:14.764Z,94.93
2022-09-21T06:14:24.460Z,93.27
2022-09-21T06:16:27.421Z,92.64
2022-09-21T06:18:30.507Z,92.76
2022-09-21T06:20:33.494Z,91.02
2022-09-21T06:22:36.836Z,91.32
2022-09-21T06:24:41.143Z,92.59
2022-09-21T06:26:44.075Z,92.39
2022-09-21T06:28:47.074Z,91.72
2022-09-21T06:30:52.090Z,90.90
2022-09-21T06:32:55.065Z,91.94
2022-09-21T06:34:58.034Z,91.13
2022-09-21T06:37:01.030Z,90.12
2022-09-21T06:39:04.082Z,91.35
2022-09-21T06:41:08.431Z,89.20
2022-09-21T06:43:11.520Z,88.85
2022-09-21T06:45:14.677Z,87.43
2022-09-21T06:47:18.064Z,87.17
2022-09-21T06:49:21.287Z,86.69
2022-09-21T06:51:24.217Z,86.85
2022-09-21T06:53:27.408Z,86.41
2022-09-21T06:55:30.589Z,86.46
2022-09-21T06:57:35.091Z,85.84
2022-09-21T06:59:38.094Z,87.71
2022-09-21T07:01:41.302Z,85.61
2022-09-21T07:06:27.427Z,85.29
2022-09-21T07:10:53.383Z,84.24
2022-09-21T07:12:57.631Z,83.67
2022-09-21T07:15:00.674Z,84.24
2022-09-21T07:17:03.621Z,81.97
2022-09-21T07:19:13.830Z,81.73
2022-09-21T07:21:17.259Z,81.56
2022-09-21T07:23:22.334Z,82.00
2022-09-21T07:25:25.542Z,81.80
2022-09-21T07:27:30.290Z,81.82
2022-09-21T07:29:34.603Z,80.40
2022-09-21T07:31:37.606Z,80.86
2022-09-21T07:33:40.947Z,81.14
2022-09-21T07:35:51.796Z,82.24
2022-09-21T07:37:56.456Z,80.69
2022-09-21T07:39:59.709Z,81.80
2022-09-21T07:42:02.699Z,80.26
2022-09-21T07:44:06.119Z,80.34
2022-09-21T07:46:12.020Z,80.26
2022-09-21T07:48:14.992Z,81.10
2022-09-21T07:50:18.121Z,81.84
2022-09-21T07:52:21.285Z,78.53
2022-09-21T07:54:24.214Z,78.43
2022-09-21T07:56:27.257Z,78.83
2022-09-21T07:58:53.095Z,79.85
2022-09-21T08:00:56.201Z,78.04
2022-09-21T08:03:01.222Z,80.85
2022-09-21T08:05:04.774Z,78.96
2022-09-21T08:07:08.238Z,77.06
2022-09-21T08:09:11.248Z,77.67
2022-09-21T08:11:14.491Z,77.57
2022-09-21T08:13:17.431Z,78.00
2022-09-21T08:15:43.901Z,77.88
2022-09-21T08:17:43.413Z,76.53
2022-09-21T08:19:48.114Z,77.33
2022-09-21T08:21:56.238Z,77.72
2022-09-21T08:24:00.422Z,80.06
2022-09-21T08:26:05.466Z,75.91
2022-09-21T08:28:10.045Z,75.66
2022-09-21T08:30:13.705Z,76.68
2022-09-21T08:32:39.468Z,78.08
2022-09-21T08:34:39.658Z,80.67
2022-09-21T08:36:44.025Z,77.67
2022-09-21T08:38:48.077Z,76.75
2022-09-21T08:40:51.213Z,75.42
2022-09-21T08:42:59.200Z,73.95
2022-09-21T08:45:06.410Z,73.16
2022-09-21T08:47:13.302Z,71.81
2022-09-21T08:49:18.723Z,72.04
2022-09-21T08:51:23.857Z,69.52
2022-09-21T08:53:32.338Z,71.34
2022-09-21T08:55:35.380Z,67.25
2022-09-21T08:57:38.556Z,66.42
2022-09-21T08:59:44.009Z,66.47
2022-09-21T09:01:55.875Z,65.35
2022-09-21T09:04:16.165Z,66.08
2022-09-21T09:06:26.918Z,64.78
2022-09-21T09:08:54.734Z,63.97
2022-09-21T09:11:07.050Z,63.51
2022-09-21T09:13:27.657Z,62.97
2022-09-21T09:15:39.301Z,63.46
2022-09-21T09:17:50.588Z,63.95
2022-09-21T09:19:57.552Z,63.43
2022-09-21T09:22:03.529Z,61.88
2022-09-21T09:24:11.596Z,62.99
2022-09-21T09:26:19.371Z,63.16
2022-09-21T09:28:28.273Z,63.19
2022-09-21T09:30:35.252Z,63.32
2022-09-21T09:32:42.523Z,62.79
2022-09-21T09:34:50.371Z,62.70
2022-09-21T09:37:00.133Z,64.34
2022-09-21T09:39:05.976Z,60.69
2022-09-21T09:41:34.844Z,62.45
2022-09-21T09:43:47.129Z,63.50
2022-09-21T09:45:58.837Z,62.45
2022-09-21T09:48:10.947Z,61.19
2022-09-21T09:50:21.733Z,62.36
2022-09-21T09:52:24.892Z,63.76
2022-09-21T09:54:28.996Z,63.41
2022-09-21T09:56:33.931Z,62.73
2022-09-21T09:58:42.834Z,64.29
2022-09-21T10:00:47.400Z,63.20
2022-09-21T10:02:52.299Z,62.53
2022-09-21T10:05:03.807Z,63.37
2022-09-21T10:07:06.884Z,64.68
2022-09-21T10:09:21.657Z,64.19
2022-09-21T10:11:37.570Z,64.83
2022-09-21T10:13:41.629Z,63.88
2022-09-21T10:15:49.174Z,65.07
2022-09-21T10:17:59.611Z,62.72
2022-09-21T10:20:03.914Z,62.82
2022-09-21T10:22:07.332Z,62.11
2022-09-21T10:24:20.174Z,64.01
2022-09-21T10:26:23.277Z,64.54
2022-09-21T10:28:28.411Z,63.45
2022-09-21T10:30:38.458Z,63.27
2022-09-21T10:32:56.365Z,62.96
2022-09-21T10:35:18.236Z,62.06
2022-09-21T10:37:34.008Z,61.55
2022-09-21T10:39:37.299Z,61.13
2022-09-21T10:41:40.395Z,61.46
2022-09-21T10:43:45.232Z,60.52
2022-09-21T10:45:54.649Z,60.50
2022-09-21T10:47:59.990Z,60.42
2022-09-21T10:50:04.483Z,62.15
2022-09-21T10:52:07.517Z,62.44
2022-09-21T10:54:11.217Z,62.53
2022-09-21T10:56:18.757Z,63.19
2022-09-21T10:58:22.086Z,63.80
2022-09-21T11:00:35.616Z,64.24
2022-09-21T11:02:39.621Z,63.98
2022-09-21T11:04:44.817Z,62.92
2022-09-21T11:06:49.952Z,62.83
2022-09-21T11:08:56.544Z,63.18
2022-09-21T11:11:09.943Z,62.45
2022-09-21T11:13:23.353Z,61.46
2022-09-21T11:15:43.308Z,62.60
2022-09-21T11:17:49.404Z,63.01
2022-09-21T11:19:57.298Z,62.75
2022-09-21T11:22:03.317Z,62.17
2022-09-21T11:24:18.234Z,62.60
2022-09-21T11:26:26.498Z,62.68
2022-09-21T11:28:33.545Z,63.43
2022-09-21T11:30:53.666Z,60.97
2022-09-21T11:33:07.661Z,60.72
2022-09-21T11:35:25.013Z,60.18
2022-09-21T11:37:42.169Z,61.21
2022-09-21T11:39:57.356Z,61.97
2022-09-21T11:42:14.243Z,61.46
2022-09-21T11:44:25.434Z,62.89
2022-09-21T11:46:35.238Z,60.31
2022-09-21T11:48:54.404Z,62.15
2022-09-21T11:51:09.374Z,60.77
2022-09-21T11:53:22.605Z,60.85
2022-09-21T11:55:52.525Z,61.69
2022-09-21T11:58:00.371Z,61.36
2022-09-21T12:00:16.035Z,60.11
2022-09-21T12:02:33.297Z,60.79
2022-09-21T12:04:44.467Z,61.71
2022-09-21T12:06:56.669Z,61.28
2022-09-21T12:09:11.658Z,61.40
2022-09-21T12:11:25.773Z,59.51
2022-09-21T12:13:36.213Z,59.65
2022-09-21T12:15:44.013Z,59.73
2022-09-21T12:17:56.000Z,59.34
2022-09-21T12:20:04.833Z,58.85
2022-09-21T12:22:09.552Z,59.79
2022-09-21T12:24:16.299Z,58.75
2022-09-21T12:26:22.160Z,55.61
2022-09-21T12:28:28.260Z,57.42
2022-09-21T12:30:32.992Z,58.15
2022-09-21T12:32:49.419Z,57.10
2022-09-21T12:34:57.499Z,58.79
2022-09-21T12:37:07.555Z,58.65
2022-09-21T12:39:14.885Z,58.99
2022-09-21T12:41:21.451Z,59.50
2022-09-21T12:43:31.860Z,59.16
2022-09-21T12:45:39.174Z,59.52
2022-09-21T12:47:50.248Z,59.38
2022-09-21T12:49:58.805Z,57.74
2022-09-21T12:52:06.855Z,59.38
2022-09-21T12:54:17.340Z,59.53
2022-09-21T12:56:28.487Z,59.45
2022-09-21T12:58:45.695Z,59.66
2022-09-21T13:00:56.497Z,59.09
2022-09-21T13:03:07.094Z,59.67
2022-09-21T13:05:18.008Z,58.54
2022-09-21T13:07:41.012Z,60.43
2022-09-21T13:09:46.295Z,58.78
2022-09-21T13:11:53.937Z,56.72
2022-09-21T13:13:59.346Z,57.85
2022-09-21T13:16:04.456Z,56.68
2022-09-21T13:18:16.744Z,57.66
2022-09-21T13:20:22.004Z,58.01
2022-09-21T13:22:26.188Z,56.55
2022-09-21T13:24:31.437Z,57.15
2022-09-21T13:26:36.887Z,58.02
2022-09-21T13:29:04.815Z,57.92
2022-09-21T13:31:40.553Z,57.12
2022-09-21T13:34:20.926Z,56.36
2022-09-21T13:36:35.284Z,55.50
2022-09-21T13:39:13.692Z,55.33
2022-09-21T13:41:45.515Z,55.04
2022-09-21T13:44:04.973Z,55.64
2022-09-21T13:46:08.751Z,57.21
2022-09-21T13:48:19.909Z,55.88
2022-09-21T13:50:27.473Z,55.44
2022-09-21T13:52:39.414Z,56.51
2022-09-21T13:54:49.941Z,55.98
2022-09-21T13:57:08.572Z,56.40
2022-09-21T13:59:22.413Z,55.90
2022-09-21T14:01:48.169Z,56.50
2022-09-21T14:03:53.931Z,56.42
2022-09-21T14:06:04.708Z,55.72
2022-09-21T14:08:22.566Z,55.59
2022-09-21T14:10:27.579Z,55.33
2022-09-21T14:12:35.852Z,55.76
2022-09-21T14:14:41.456Z,55.90
2022-09-21T14:16:55.791Z,55.39
2022-09-21T14:18:58.776Z,55.21
2022-09-21T14:21:21.145Z,54.24
2022-09-21T14:23:30.196Z,54.37
2022-09-21T14:25:52.125Z,55.55
2022-09-21T14:27:55.797Z,55.33
2022-09-21T14:30:06.235Z,56.63
2022-09-21T14:32:18.977Z,55.72
2022-09-21T14:34:25.784Z,55.77
2022-09-21T14:36:41.454Z,55.72
2022-09-21T14:38:53.402Z,56.38
2022-09-21T14:41:00.640Z,55.56
2022-09-21T14:43:09.805Z,56.19
2022-09-21T14:45:18.074Z,55.71
2022-09-21T14:47:30.712Z,55.61
2022-09-21T14:49:52.138Z,56.49
2022-09-21T14:52:12.852Z,55.69
2022-09-21T14:54:31.373Z,57.05
2022-09-21T14:56:45.040Z,56.46
2022-09-21T14:59:03.083Z,55.91
2022-09-21T15:01:36.407Z,56.91
2022-09-21T15:03:49.610Z,56.37
2022-09-21T15:05:56.883Z,56.87
2022-09-21T15:08:33.729Z,56.60
2022-09-21T15:10:57.147Z,56.62
2022-09-21T15:13:01.721Z,56.60
2022-09-21T15:15:20.163Z,57.46
2022-09-21T15:17:27.213Z,56.50
2022-09-21T15:19:34.626Z,56.24
2022-09-21T15:21:38.238Z,56.33
2022-09-21T15:23:42.579Z,56.34
2022-09-21T15:25:54.592Z,55.86
2022-09-21T15:27:57.821Z,56.96
2022-09-21T15:30:03.125Z,56.71
2022-09-21T15:32:07.436Z,57.23
2022-09-21T15:34:11.911Z,56.40
2022-09-21T15:36:15.101Z,56.43
2022-09-21T15:38:28.578Z,56.73
2022-09-21T15:40:34.634Z,56.74
2022-09-21T15:42:50.075Z,56.59
2022-09-21T15:45:06.014Z,56.59
2022-09-21T15:47:11.174Z,56.69
2022-09-21T15:49:15.448Z,58.24
2022-09-21T15:51:23.379Z,56.19
2022-09-21T15:53:30.258Z,57.99
2022-09-21T15:55:34.649Z,58.23
2022-09-21T15:57:40.460Z,58.18
2022-09-21T15:59:47.323Z,57.37
2022-09-21T16:01:52.222Z,57.64
2022-09-21T16:04:04.520Z,58.11
2022-09-21T16:06:25.921Z,60.00
2022-09-21T16:08:33.002Z,58.31
2022-09-21T16:10:40.417Z,59.30
2022-09-21T16:12:44.294Z,58.27
2022-09-21T16:14:59.665Z,59.83
2022-09-21T16:17:24.925Z,60.24
2022-09-21T16:19:41.254Z,58.91
2022-09-21T16:21:44.316Z,58.29
2022-09-21T16:23:48.076Z,59.61
2022-09-21T16:26:01.253Z,59.48
2022-09-21T16:28:07.099Z,59.25
2022-09-21T16:30:41.153Z,58.56
2022-09-21T16:32:48.116Z,58.51
2022-09-21T16:34:54.180Z,57.69
2022-09-21T16:36:57.247Z,56.94
2022-09-21T16:39:01.062Z,57.85
2022-09-21T16:41:05.666Z,58.97
2022-09-21T16:43:10.714Z,58.01
2022-09-21T16:45:19.943Z,57.64
2022-09-21T16:47:25.430Z,59.76
2022-09-21T16:49:31.153Z,58.74
2022-09-21T16:51:34.158Z,60.05
2022-09-21T16:53:37.396Z,59.61
2022-09-21T16:55:42.845Z,58.80
2022-09-21T16:57:48.126Z,58.94
2022-09-21T16:59:51.497Z,60.69
2022-09-21T17:01:56.711Z,60.00
2022-09-21T17:04:00.065Z,59.35
2022-09-21T17:06:03.035Z,59.59
2022-09-21T17:08:06.094Z,61.73
2022-09-21T17:10:12.535Z,61.89
2022-09-21T17:12:17.575Z,61.16
2022-09-21T17:14:22.183Z,61.25
2022-09-21T17:16:25.306Z,62.17
2022-09-21T17:18:29.122Z,62.57
2022-09-21T17:20:38.222Z,62.52
2022-09-21T17:22:41.261Z,61.51
2022-09-21T17:24:52.767Z,61.89
2022-09-21T17:26:55.817Z,64.36
2022-09-21T17:28:59.082Z,62.88
2022-09-21T17:31:09.522Z,63.03
2022-09-21T17:33:12.848Z,63.91
2022-09-21T17:35:19.098Z,64.96
2022-09-21T17:37:25.063Z,64.70
2022-09-21T17:39:28.235Z,65.24
2022-09-21T17:41:35.916Z,65.08
2022-09-21T17:43:41.213Z,65.08
2022-09-21T17:45:50.391Z,64.67
2022-09-21T17:47:55.632Z,66.31
2022-09-21T17:50:01.495Z,65.38
2022-09-21T17:52:22.400Z,65.88
2022-09-21T17:54:25.946Z,65.33
2022-09-21T17:56:40.633Z,65.19
2022-09-21T17:58:49.149Z,65.92
2022-09-21T18:00:59.486Z,65.86
2022-09-21T18:03:04.716Z,66.70
2022-09-21T18:05:17.099Z,66.26
2022-09-21T18:07:20.531Z,66.87
2022-09-21T18:09:24.243Z,66.71
2022-09-21T18:11:51.151Z,67.41
2022-09-21T18:13:59.512Z,68.28
2022-09-21T18:16:16.783Z,68.71
2022-09-21T18:18:31.458Z,68.78
2022-09-21T18:20:42.801Z,69.22
2022-09-21T18:22:52.983Z,70.39
2022-09-21T18:24:57.031Z,71.97
2022-09-21T18:27:00.726Z,71.67
2022-09-21T18:29:22.420Z,72.38
2022-09-21T18:31:42.163Z,73.13
2022-09-21T18:33:51.630Z,73.45
2022-09-21T18:36:02.286Z,74.19
2022-09-21T18:38:15.507Z,73.69
2022-09-21T18:40:23.309Z,74.57
2022-09-21T18:42:40.176Z,74.83
2022-09-21T18:44:48.073Z,75.14
2022-09-21T18:46:58.881Z,75.40
2022-09-21T18:49:08.312Z,76.98
2022-09-21T18:51:18.407Z,76.66
2022-09-21T18:53:25.473Z,76.36
2022-09-21T18:55:31.304Z,75.71
2022-09-21T18:57:35.090Z,76.87
2022-09-21T18:59:38.766Z,76.19
2022-09-21T19:01:42.663Z,76.53
2022-09-21T19:03:46.613Z,77.67
2022-09-21T19:06:01.387Z,78.79
2022-09-21T19:08:10.237Z,76.84
2022-09-21T19:10:16.421Z,78.39
2022-09-21T19:12:27.943Z,77.96
2022-09-21T19:14:37.536Z,77.35
2022-09-21T19:16:47.899Z,79.21
2022-09-21T19:19:00.914Z,78.76
2022-09-21T19:21:16.884Z,78.91
2022-09-21T19:23:29.517Z,80.11
2022-09-21T19:25:37.096Z,78.89
2022-09-21T19:27:44.996Z,80.42
2022-09-21T19:29:57.649Z,79.87
2022-09-21T19:32:00.936Z,81.19
2022-09-21T19:34:13.182Z,80.10
2022-09-21T19:36:17.938Z,80.55
2022-09-21T19:38:21.411Z,80.79
2022-09-21T19:40:26.667Z,79.82
2022-09-21T19:42:59.324Z,79.90
2022-09-21T19:45:08.505Z,80.95
2022-09-21T19:47:17.990Z,81.13
2022-09-21T19:49:22.274Z,80.96
2022-09-21T19:51:38.151Z,81.37
2022-09-21T19:53:59.106Z,81.04
2022-09-21T19:56:20.773Z,80.24
2022-09-21T19:58:42.023Z,80.88
2022-09-21T20:00:46.860Z,81.85
2022-09-21T20:03:00.280Z,82.72
2022-09-21T20:05:07.547Z,81.87
2022-09-21T20:07:19.002Z,81.28
2022-09-21T20:09:25.570Z,82.48
2022-09-21T20:11:37.883Z,83.32
2022-09-21T20:13:51.254Z,81.49
2022-09-21T20:15:59.927Z,82.66
2022-09-21T20:18:07.645Z,83.61
2022-09-21T20:20:15.806Z,83.33
2022-09-21T20:22:28.517Z,82.87
2022-09-21T20:24:34.696Z,83.12
2022-09-21T20:26:37.914Z,82.46
2022-09-21T20:28:41.551Z,83.94
2022-09-21T20:30:45.003Z,82.66
2022-09-21T20:32:51.430Z,84.18
2022-09-21T20:34:54.639Z,83.29
2022-09-21T20:36:57.675Z,83.31
2022-09-21T20:39:04.110Z,83.75
2022-09-21T20:41:10.945Z,83.39
2022-09-21T20:43:15.759Z,83.09
2022-09-21T20:45:19.156Z,83.88
2022-09-21T20:47:22.270Z,83.92
2022-09-21T20:49:25.253Z,83.35
2022-09-21T20:51:28.413Z,84.20
2022-09-21T20:53:31.422Z,83.52
2022-09-21T20:55:35.793Z,84.95
2022-09-21T20:57:39.580Z,85.20
2022-09-21T20:59:42.756Z,84.95
2022-09-21T21:01:45.801Z,84.22
2022-09-21T21:03:48.976Z,84.15
2022-09-21T21:05:52.039Z,84.58
2022-09-21T21:07:54.980Z,84.07
2022-09-21T21:09:58.697Z,84.31
2022-09-21T21:12:03.419Z,84.95
2022-09-21T21:14:06.357Z,84.76
2022-09-21T21:16:12.114Z,85.45
2022-09-21T21:18:16.053Z,84.94
2022-09-21T21:20:19.402Z,85.76
2022-09-21T21:22:22.365Z,85.72
2022-09-21T21:24:44.093Z,85.04
2022-09-21T21:27:03.285Z,85.34
2022-09-21T21:29:07.892Z,85.18
2022-09-21T21:31:12.036Z,85.41
2022-09-21T21:33:14.975Z,85.49
2022-09-21T21:35:18.462Z,85.52
2022-09-21T21:37:23.787Z,85.78
2022-09-21T21:39:26.735Z,85.63
2022-09-21T21:41:31.122Z,86.18
2022-09-21T21:43:34.495Z,85.64
2022-09-21T21:45:39.864Z,85.62
2022-09-21T21:47:42.869Z,85.56
2022-09-21T21:49:45.870Z,85.92
2022-09-21T21:51:50.100Z,86.17
2022-09-21T21:53:53.040Z,85.73
2022-09-21T21:56:03.755Z,85.56
2022-09-21T21:58:06.682Z,86.25
2022-09-21T22:00:10.691Z,85.50
2022-09-21T22:02:15.347Z,85.99
2022-09-21T22:04:18.642Z,85.92
2022-09-21T22:06:22.240Z,86.12
2022-09-21T22:08:28.355Z,86.33
2022-09-21T22:10:31.379Z,86.35
2022-09-21T22:12:34.451Z,86.60
2022-09-21T22:14:37.555Z,86.85
2022-09-21T22:16:40.699Z,87.22
2022-09-21T22:18:45.403Z,86.48
2022-09-21T22:20:48.492Z,86.58
2022-09-21T22:22:51.453Z,86.57
2022-09-21T22:24:54.733Z,86.26
2022-09-21T22:26:57.707Z,85.63
2022-09-21T22:29:02.187Z,85.45
2022-09-21T22:31:09.574Z,86.30
2022-09-21T22:33:12.636Z,86.70
2022-09-21T22:35:17.243Z,86.34
2022-09-21T22:37:20.203Z,86.32
2022-09-21T22:39:23.179Z,86.54
2022-09-21T22:41:27.672Z,86.62
2022-09-21T22:43:30.771Z,87.15
2022-09-21T22:45:33.743Z,86.86
2022-09-21T22:47:36.730Z,86.91
2022-09-21T22:49:39.712Z,86.71
2022-09-21T22:51:44.009Z,87.18
2022-09-21T22:53:47.817Z,86.89
2022-09-21T22:56:02.095Z,86.90
2022-09-21T22:58:05.018Z,87.53
2022-09-21T23:00:09.351Z,88.21
2022-09-21T23:02:12.274Z,88.47
2022-09-21T23:04:15.408Z,87.09
2022-09-21T23:06:20.096Z,87.68
2022-09-21T23:08:24.434Z,87.71
2022-09-21T23:10:28.840Z,88.11
2022-09-21T23:12:31.788Z,88.02
2022-09-21T23:14:34.824Z,87.48
2022-09-21T23:16:38.091Z,87.63
2022-09-21T23:18:41.444Z,87.19
2022-09-21T23:20:44.365Z,87.84
2022-09-21T23:22:47.309Z,88.38
2022-09-21T23:24:51.622Z,88.12
2022-09-21T23:26:54.579Z,88.51
2022-09-21T23:28:58.631Z,88.30
2022-09-21T23:31:03.228Z,88.17
2022-09-21T23:33:06.174Z,88.88
2022-09-21T23:35:09.404Z,88.01
2022-09-21T23:37:12.388Z,87.49
2022-09-21T23:39:16.203Z,88.42
2022-09-21T23:41:22.078Z,88.24
2022-09-21T23:43:24.983Z,87.72
2022-09-21T23:45:27.861Z,87.38
2022-09-21T23:47:30.769Z,87.84
2022-09-21T23:49:33.725Z,88.26
2022-09-21T23:51:36.822Z,88.43
2022-09-21T23:53:40.618Z,87.95
2022-09-21T23:55:43.512Z,87.94
2022-09-21T23:57:47.765Z,87.96
2022-09-21T23:59:52.628Z,89.18
